Inicio METAR Ruta Wind Satelite

Informe Meteorológico

Fecha: 2020/12/01 18:18:58 Local
2020.12.01 23:18 UTC


Estado: VENCIDO
Operación:
Station name not available
Nov 11, 2020 - 06:00 AM EST / 2020.11.11 1100 UTC
Wind: from the N (360 degrees) at 3 MPH (3 KT):0
Visibility: 5 mile(s):0
Sky conditions: overcast
Weather: rain; mist
Temperature: 68 F (20 C)
Dew Point: 66 F (19 C)
Relative Humidity: 93%
Pressure (altimeter): 30.05 in. Hg (1017 hPa)
ob: SKGO 111100Z 36003KT 9000 4000S RA BR BKN050 OVC110 20/19 A3005
cycle: 11